Centerville, Washington
Current Conditions -  °F | °C
As of 5:53 AM on Monday 22 Dec 2014 (Local Time) from KDLS Reporting Station
Clear Clear  
Wind Chill: 45°   Ceiling: Unl
Heat Index: 49°   Visibility: 10mi
Dew Point: 42°   Wind: 9mph
Humidity: 77%   Direction: 320°NW
Pressure: 30.21"   Gusts: NA
Location:  45.75°N, 120.91°W
Report Text: KDLS 221353Z AUTO 32008KT 10SM CLR 09/06 A3021 RMK AO2 SLP230 T00940056
Loading
Personal Weather Stations






























Interactive Weather Map New forecast layout! Learn more

10-Day Weather Forecast

Advertisements
Track Severe Weather on mobile